Time;durP1;ratioP1;P1;durP2;ratioP2;P2;SDS_P1;SDS_P2;PMS_P1;PMS_P2;Temp;Humidity;BMP_temperature;BMP_pressure;BME280_temperature;BME280_humidity;BME280_pressure;Samples;Min_cycle;Max_cycle;Signal;HPM_P1;HPM_P2
2022/01/07 00:00:42;;;;;;;11.43;6.13;;;4.50;99.90;;;;;;6234091;23;20176;-93
2022/01/07 00:03:09;;;;;;;9.83;4.83;;;4.40;99.90;;;;;;6224184;23;20197;-96
2022/01/07 00:05:38;;;;;;;12.87;5.23;;;4.40;99.90;;;;;;6217103;23;20486;-89
2022/01/07 00:08:08;;;;;;;9.53;5.20;;;4.40;99.90;;;;;;6225089;22;20205;-96
2022/01/07 00:10:35;;;;;;;6.77;4.33;;;4.40;99.90;;;;;;6247613;23;20187;-95
2022/01/07 00:13:06;;;;;;;8.33;4.87;;;4.40;99.90;;;;;;6244914;22;20211;-95
2022/01/07 00:15:33;;;;;;;9.17;4.70;;;4.40;99.90;;;;;;6245160;23;20170;-96
2022/01/07 00:18:00;;;;;;;10.60;5.20;;;4.40;99.90;;;;;;6246492;23;20165;-95
2022/01/07 00:20:28;;;;;;;9.60;5.40;;;4.30;99.90;;;;;;6247747;23;20201;-93
2022/01/07 00:22:55;;;;;;;11.90;5.23;;;4.40;99.90;;;;;;6246813;23;20173;-90
2022/01/07 00:25:23;;;;;;;10.73;5.13;;;4.30;99.90;;;;;;6244611;23;20171;-91
2022/01/07 00:27:52;;;;;;;8.63;4.90;;;4.30;99.90;;;;;;6241605;23;20176;-96
2022/01/07 00:30:21;;;;;;;11.60;5.60;;;4.40;99.90;;;;;;6245433;23;20165;-94
2022/01/07 00:32:49;;;;;;;13.27;5.90;;;4.30;99.90;;;;;;6246885;23;20193;-95
2022/01/07 00:35:17;;;;;;;9.40;5.63;;;4.30;99.90;;;;;;6247281;23;20173;-96
2022/01/07 00:37:45;;;;;;;11.07;5.50;;;4.30;99.90;;;;;;6247206;22;20169;-92
2022/01/07 00:40:21;;;;;;;12.47;5.10;;;4.30;99.90;;;;;;6233115;22;20213;-96
2022/01/07 00:42:51;;;;;;;8.83;5.43;;;4.30;99.90;;;;;;6250325;23;20429;-96
2022/01/07 00:45:23;;;;;;;8.10;5.00;;;4.30;99.90;;;;;;6251349;23;20231;-96
2022/01/07 00:47:51;;;;;;;9.50;5.03;;;4.40;99.90;;;;;;6253813;23;20172;-96
2022/01/07 00:50:26;;;;;;;13.67;5.33;;;4.40;99.90;;;;;;6255863;23;20166;-90
2022/01/07 00:52:53;;;;;;;9.33;5.23;;;4.30;99.90;;;;;;6255661;23;20176;-90
2022/01/07 00:55:21;;;;;;;9.47;5.23;;;4.40;99.90;;;;;;6253288;23;20165;-93
2022/01/07 00:57:49;;;;;;;9.47;5.07;;;4.40;99.90;;;;;;6252762;23;20181;-92
2022/01/07 01:00:20;;;;;;;11.30;5.70;;;4.40;99.90;;;;;;6249872;23;20216;-95
2022/01/07 01:02:49;;;;;;;11.53;5.77;;;4.40;99.90;;;;;;6250672;23;20165;-89
2022/01/07 01:05:16;;;;;;;9.57;5.00;;;4.40;99.90;;;;;;6248706;23;20181;-87
2022/01/07 01:07:44;;;;;;;8.57;4.90;;;4.40;99.90;;;;;;6248716;23;20244;-93
2022/01/07 01:10:12;;;;;;;11.60;5.90;;;4.40;99.90;;;;;;6249382;23;20573;-95
2022/01/07 01:12:42;;;;;;;10.30;5.80;;;4.40;99.90;;;;;;6261427;23;20200;-92
2022/01/07 01:15:11;;;;;;;11.10;5.83;;;4.40;99.90;;;;;;6258064;23;20260;-90
2022/01/07 01:17:39;;;;;;;7.47;5.00;;;4.40;99.90;;;;;;6248205;22;20213;-94
2022/01/07 01:20:13;;;;;;;15.63;5.60;;;4.50;99.90;;;;;;6247270;23;20201;-96
2022/01/07 01:22:41;;;;;;;13.37;5.43;;;4.40;99.90;;;;;;6246480;23;20175;-94
2022/01/07 01:25:09;;;;;;;11.33;5.20;;;4.50;99.90;;;;;;6245441;23;20169;-90
2022/01/07 01:27:36;;;;;;;11.30;5.13;;;4.50;99.90;;;;;;6246559;23;20175;-88
2022/01/07 01:30:05;;;;;;;9.80;4.60;;;4.50;99.90;;;;;;6245755;23;20166;-87
2022/01/07 01:32:34;;;;;;;12.23;5.53;;;4.50;99.90;;;;;;6246684;23;20185;-93
2022/01/07 01:35:01;;;;;;;8.67;5.00;;;4.50;99.90;;;;;;6247575;23;20248;-94
2022/01/07 01:37:30;;;;;;;7.03;4.60;;;4.50;99.90;;;;;;6246809;23;20558;-94
2022/01/07 01:39:58;;;;;;;11.07;5.90;;;4.60;99.90;;;;;;6222848;23;20641;-93
2022/01/07 01:42:27;;;;;;;12.30;6.33;;;4.60;99.90;;;;;;6219241;23;20174;-95
2022/01/07 01:44:54;;;;;;;9.73;5.67;;;4.60;99.90;;;;;;6219512;23;20217;-90
2022/01/07 01:47:21;;;;;;;11.47;6.33;;;4.60;99.90;;;;;;6218997;23;20198;-89
2022/01/07 01:49:48;;;;;;;9.43;6.03;;;4.50;99.90;;;;;;6218279;23;20166;-89
2022/01/07 01:52:15;;;;;;;11.97;6.10;;;4.60;99.90;;;;;;6218548;23;20174;-93
2022/01/07 01:54:48;;;;;;;10.50;6.43;;;4.60;99.90;;;;;;6217715;23;20184;-95
2022/01/07 01:57:15;;;;;;;9.07;6.73;;;4.60;99.90;;;;;;6217661;23;20245;-96
2022/01/07 01:59:43;;;;;;;10.70;6.60;;;4.70;99.90;;;;;;6215269;22;20222;-95
2022/01/07 02:02:09;;;;;;;15.40;6.50;;;4.70;99.90;;;;;;6217148;23;20170;-94
2022/01/07 02:04:40;;;;;;;10.77;6.07;;;4.70;99.90;;;;;;6243153;22;20287;-94
2022/01/07 02:07:08;;;;;;;11.90;6.50;;;4.70;99.90;;;;;;6248008;23;20170;-91
2022/01/07 02:09:37;;;;;;;10.63;6.03;;;4.70;99.90;;;;;;6248765;23;20227;-94
2022/01/07 02:12:07;;;;;;;14.63;6.83;;;4.70;99.90;;;;;;6249704;23;20502;-94
2022/01/07 02:14:35;;;;;;;14.13;6.37;;;4.70;99.90;;;;;;6248245;23;20687;-94
2022/01/07 02:17:09;;;;;;;13.60;6.60;;;4.80;99.90;;;;;;6249992;23;20524;-89
2022/01/07 02:19:38;;;;;;;9.17;6.67;;;4.70;99.90;;;;;;6263385;23;20709;-88
2022/01/07 02:22:06;;;;;;;9.80;7.00;;;4.70;99.90;;;;;;6257727;23;20180;-94
2022/01/07 02:24:34;;;;;;;15.27;7.13;;;4.70;99.90;;;;;;6248845;23;20177;-91
2022/01/07 02:27:02;;;;;;;9.70;6.77;;;4.70;99.90;;;;;;6257936;23;20431;-94
2022/01/07 02:29:29;;;;;;;10.90;7.20;;;4.70;99.90;;;;;;6251511;23;20172;-89
2022/01/07 02:31:56;;;;;;;11.70;7.57;;;4.80;99.90;;;;;;6244769;23;20163;-92
2022/01/07 02:34:23;;;;;;;11.70;7.30;;;4.80;99.90;;;;;;6243444;23;20196;-96
2022/01/07 02:36:51;;;;;;;9.60;7.70;;;4.70;99.90;;;;;;6244493;23;20373;-90
2022/01/07 02:39:19;;;;;;;10.67;7.57;;;4.70;99.90;;;;;;6228018;23;20198;-88
2022/01/07 02:41:46;;;;;;;12.97;7.43;;;4.80;99.90;;;;;;6214272;23;20263;-83
2022/01/07 02:44:12;;;;;;;19.87;8.97;;;4.70;99.90;;;;;;6214870;23;20490;-87
2022/01/07 02:46:39;;;;;;;12.63;7.80;;;4.70;99.90;;;;;;6214032;23;20176;-95
2022/01/07 02:49:10;;;;;;;12.57;8.30;;;4.80;99.90;;;;;;6213448;23;20176;-89
2022/01/07 02:51:38;;;;;;;11.23;7.23;;;4.80;99.90;;;;;;6214934;23;20162;-94
2022/01/07 02:54:07;;;;;;;12.90;8.60;;;4.80;99.90;;;;;;6214588;23;20181;-91
2022/01/07 02:56:35;;;;;;;16.17;9.23;;;4.80;99.90;;;;;;6213868;23;20439;-93
2022/01/07 02:59:02;;;;;;;14.40;8.60;;;4.90;99.90;;;;;;6214826;23;20166;-93
2022/01/07 03:01:29;;;;;;;12.93;7.90;;;4.90;99.90;;;;;;6215121;23;20190;-93
2022/01/07 03:03:56;;;;;;;11.50;7.50;;;4.90;99.90;;;;;;6215152;23;20209;-92
2022/01/07 03:06:23;;;;;;;9.50;7.30;;;4.90;99.90;;;;;;6216281;23;20174;-88
2022/01/07 03:08:51;;;;;;;12.83;7.90;;;4.90;99.90;;;;;;6215242;23;20245;-92
2022/01/07 03:11:20;;;;;;;10.83;7.60;;;5.00;99.90;;;;;;6214531;23;20553;-85
2022/01/07 03:13:47;;;;;;;11.67;6.87;;;5.00;99.90;;;;;;6213764;23;20181;-89
2022/01/07 03:16:14;;;;;;;16.93;8.43;;;4.90;99.90;;;;;;6212965;23;20182;-87
2022/01/07 03:18:42;;;;;;;10.67;6.50;;;5.00;99.90;;;;;;6213748;23;20874;-87
2022/01/07 03:21:09;;;;;;;10.73;6.43;;;5.00;99.90;;;;;;6214542;23;20197;-91
2022/01/07 03:23:37;;;;;;;12.90;7.00;;;5.00;99.90;;;;;;6214336;23;20170;-86
2022/01/07 03:26:07;;;;;;;10.73;6.87;;;5.00;99.90;;;;;;6213164;23;20174;-91
2022/01/07 03:28:35;;;;;;;9.63;7.00;;;5.00;99.90;;;;;;6214906;23;20173;-89
2022/01/07 03:31:02;;;;;;;11.00;7.37;;;5.00;99.90;;;;;;6212844;23;20166;-91
2022/01/07 03:33:29;;;;;;;11.70;7.03;;;5.10;99.90;;;;;;6212225;23;20236;-94
2022/01/07 03:35:56;;;;;;;15.37;8.13;;;5.10;99.90;;;;;;6218876;23;20563;-88
2022/01/07 03:38:23;;;;;;;12.20;7.10;;;5.10;99.90;;;;;;6218595;23;20261;-95
2022/01/07 03:40:51;;;;;;;11.37;7.93;;;5.10;99.90;;;;;;6230449;23;20241;-91
2022/01/07 03:43:18;;;;;;;11.97;7.53;;;5.10;99.90;;;;;;6229767;23;20184;-93
2022/01/07 03:45:46;;;;;;;11.60;8.03;;;5.10;99.90;;;;;;6219245;23;20175;-86
2022/01/07 03:48:13;;;;;;;10.40;8.60;;;5.10;99.90;;;;;;6227297;23;20174;-83
2022/01/07 03:50:40;;;;;;;15.37;8.30;;;5.20;99.90;;;;;;6220573;23;20170;-94
2022/01/07 03:53:07;;;;;;;9.50;7.90;;;5.20;99.90;;;;;;6214477;23;20659;-90
2022/01/07 03:55:34;;;;;;;12.33;8.17;;;5.20;99.90;;;;;;6214477;23;20367;-93
2022/01/07 03:58:02;;;;;;;14.43;8.07;;;5.30;99.90;;;;;;6214351;23;20173;-92
2022/01/07 04:00:32;;;;;;;11.43;8.50;;;5.30;99.90;;;;;;6213541;23;20742;-88
2022/01/07 04:03:01;;;;;;;13.80;8.13;;;5.30;99.90;;;;;;6214714;23;20669;-87
2022/01/07 04:05:29;;;;;;;9.47;8.00;;;5.30;99.90;;;;;;6214434;23;20166;-95
2022/01/07 04:07:55;;;;;;;11.90;8.37;;;5.30;99.90;;;;;;6214945;23;20185;-94
2022/01/07 04:10:23;;;;;;;12.07;8.10;;;5.30;99.90;;;;;;6214932;23;20170;-88
2022/01/07 04:12:50;;;;;;;12.17;8.53;;;5.30;99.90;;;;;;6214237;23;20761;-94
2022/01/07 04:15:17;;;;;;;12.83;8.43;;;5.30;99.90;;;;;;6214834;23;20170;-94
2022/01/07 04:17:47;;;;;;;11.27;8.03;;;5.30;99.90;;;;;;6214085;23;20173;-86
2022/01/07 04:20:17;;;;;;;11.20;8.40;;;5.30;99.90;;;;;;6213263;23;20298;-84
2022/01/07 04:22:45;;;;;;;12.20;8.17;;;5.20;99.90;;;;;;6213672;23;20166;-88
2022/01/07 04:25:17;;;;;;;11.57;8.17;;;5.30;99.90;;;;;;6214175;23;20170;-86
2022/01/07 04:27:45;;;;;;;12.67;7.67;;;5.30;99.90;;;;;;6215904;23;20176;-85
2022/01/07 04:30:13;;;;;;;10.27;7.90;;;5.30;99.90;;;;;;6217458;23;20181;-87
2022/01/07 04:32:41;;;;;;;10.60;7.83;;;5.30;99.90;;;;;;6217368;23;20797;-85
2022/01/07 04:35:09;;;;;;;8.83;7.77;;;5.30;99.90;;;;;;6217049;23;20176;-89
2022/01/07 04:37:37;;;;;;;12.17;8.03;;;5.30;99.90;;;;;;6216258;23;20174;-91
2022/01/07 04:40:06;;;;;;;11.10;8.47;;;5.30;99.90;;;;;;6216314;23;20204;-89
2022/01/07 04:42:33;;;;;;;17.20;8.30;;;5.40;99.90;;;;;;6216622;23;20177;-89
2022/01/07 04:45:00;;;;;;;10.40;8.07;;;5.40;99.90;;;;;;6217004;23;20169;-89
2022/01/07 04:47:27;;;;;;;11.70;8.40;;;5.40;99.90;;;;;;6216217;23;20169;-91
2022/01/07 04:49:54;;;;;;;8.47;6.70;;;5.40;99.90;;;;;;6217466;23;20177;-87
2022/01/07 04:52:22;;;;;;;11.87;8.00;;;5.40;99.90;;;;;;6218382;23;20586;-89
2022/01/07 04:54:51;;;;;;;13.60;8.27;;;5.50;99.90;;;;;;6223401;23;20193;-83
2022/01/07 04:57:17;;;;;;;9.73;7.43;;;5.50;99.90;;;;;;6223729;23;20174;-86
2022/01/07 04:59:44;;;;;;;14.27;7.83;;;5.50;99.90;;;;;;6216476;23;20173;-86
2022/01/07 05:02:11;;;;;;;14.20;7.37;;;5.50;99.90;;;;;;6215454;23;20192;-88
2022/01/07 05:04:38;;;;;;;14.40;7.33;;;5.50;99.90;;;;;;6213636;23;20206;-92
2022/01/07 05:07:05;;;;;;;13.87;6.77;;;5.50;99.90;;;;;;6216702;23;20732;-94
2022/01/07 05:09:32;;;;;;;11.57;6.67;;;5.50;99.90;;;;;;6219127;23;20539;-93
2022/01/07 05:12:00;;;;;;;15.27;6.90;;;5.50;99.90;;;;;;6220477;23;20193;-88
2022/01/07 05:14:27;;;;;;;12.80;7.10;;;5.50;99.90;;;;;;6227714;23;20180;-93
2022/01/07 05:16:54;;;;;;;16.27;7.13;;;5.60;99.90;;;;;;6228822;23;20185;-88
2022/01/07 05:19:21;;;;;;;14.23;7.10;;;5.60;99.90;;;;;;6220888;23;20170;-93
2022/01/07 05:21:48;;;;;;;16.63;6.97;;;5.60;99.90;;;;;;6217564;23;20190;-93
2022/01/07 05:24:15;;;;;;;13.47;7.07;;;5.60;99.90;;;;;;6217951;23;20170;-93
2022/01/07 05:26:42;;;;;;;13.73;7.17;;;5.60;99.90;;;;;;6217567;23;20177;-91
2022/01/07 05:29:10;;;;;;;18.13;7.93;;;5.60;99.90;;;;;;6216693;23;20431;-87
2022/01/07 05:31:37;;;;;;;13.67;6.30;;;5.60;99.90;;;;;;6217023;23;20180;-88
2022/01/07 05:34:04;;;;;;;14.37;6.57;;;5.60;99.90;;;;;;6216636;23;20165;-91
2022/01/07 05:36:31;;;;;;;14.53;7.17;;;5.60;99.90;;;;;;6216520;23;20241;-92
2022/01/07 05:38:58;;;;;;;17.50;6.03;;;5.60;99.90;;;;;;6215647;23;20197;-86
2022/01/07 05:41:24;;;;;;;13.27;6.43;;;5.60;99.90;;;;;;6214287;23;20196;-86
2022/01/07 05:43:51;;;;;;;13.30;5.73;;;5.60;99.90;;;;;;6214212;23;20174;-94
2022/01/07 05:46:20;;;;;;;22.67;6.20;;;5.60;99.90;;;;;;6214894;23;20173;-93
2022/01/07 05:48:47;;;;;;;19.03;7.13;;;5.60;99.90;;;;;;6214417;23;20180;-87
2022/01/07 05:51:15;;;;;;;18.73;7.13;;;5.70;99.90;;;;;;6215126;23;20170;-92
2022/01/07 05:53:42;;;;;;;15.60;6.47;;;5.80;99.90;;;;;;6215400;23;20268;-85
2022/01/07 05:56:09;;;;;;;25.60;6.23;;;5.80;99.90;;;;;;6214823;23;20170;-87
2022/01/07 05:58:36;;;;;;;18.40;5.77;;;5.90;99.90;;;;;;6214500;23;20170;-94
2022/01/07 06:01:04;;;;;;;19.53;6.27;;;5.90;99.90;;;;;;6215148;23;20212;-94
2022/01/07 06:03:33;;;;;;;20.37;8.10;;;6.00;99.90;;;;;;6215694;23;20664;-87
2022/01/07 06:06:00;;;;;;;17.97;5.07;;;6.00;99.90;;;;;;6216040;23;20193;-94
2022/01/07 06:08:27;;;;;;;22.60;5.33;;;6.10;99.90;;;;;;6218920;23;20226;-87
2022/01/07 06:10:54;;;;;;;22.03;4.53;;;6.10;99.90;;;;;;6222754;23;20169;-81
2022/01/07 06:13:21;;;;;;;20.33;4.93;;;6.20;99.90;;;;;;6216903;23;20174;-86
2022/01/07 06:15:48;;;;;;;17.47;5.03;;;6.30;99.90;;;;;;6215621;23;20813;-87
2022/01/07 06:18:15;;;;;;;24.27;4.80;;;6.40;99.90;;;;;;6215983;23;20170;-89
2022/01/07 06:20:43;;;;;;;16.80;4.67;;;6.50;99.90;;;;;;6213313;23;20194;-87
2022/01/07 06:23:10;;;;;;;18.83;4.07;;;6.50;99.90;;;;;;6215311;23;20228;-87
2022/01/07 06:25:37;;;;;;;16.37;3.03;;;6.60;99.90;;;;;;6216626;23;20244;-85
2022/01/07 06:28:04;;;;;;;24.50;3.97;;;6.60;99.90;;;;;;6217083;23;20174;-89
2022/01/07 06:30:31;;;;;;;16.13;3.67;;;6.70;99.90;;;;;;6211260;23;20274;-88
2022/01/07 06:32:58;;;;;;;24.23;4.70;;;6.70;99.90;;;;;;6214421;23;20242;-87
2022/01/07 06:35:25;;;;;;;23.53;5.37;;;6.70;99.90;;;;;;6214518;23;20189;-90
2022/01/07 06:37:53;;;;;;;21.70;4.93;;;6.70;99.90;;;;;;6212522;23;20177;-83
2022/01/07 06:40:20;;;;;;;19.23;5.03;;;6.80;99.90;;;;;;6212917;23;20194;-84
2022/01/07 06:42:47;;;;;;;13.47;4.10;;;6.70;99.90;;;;;;6224297;23;20178;-91
2022/01/07 06:45:14;;;;;;;24.53;4.80;;;6.80;99.90;;;;;;6227269;23;20207;-91
2022/01/07 06:47:41;;;;;;;15.10;4.37;;;6.80;99.90;;;;;;6219990;23;20174;-88
2022/01/07 06:50:09;;;;;;;24.17;5.67;;;6.80;99.90;;;;;;6212994;23;20180;-85
2022/01/07 06:52:36;;;;;;;14.47;5.20;;;6.70;99.90;;;;;;6212214;23;20166;-84
2022/01/07 06:55:04;;;;;;;18.47;6.40;;;6.80;99.90;;;;;;6212733;23;20173;-88
2022/01/07 06:57:31;;;;;;;15.47;4.70;;;6.70;99.90;;;;;;6212218;23;20176;-84
2022/01/07 06:59:58;;;;;;;14.57;4.50;;;6.70;99.90;;;;;;6211912;23;20550;-82
2022/01/07 07:02:25;;;;;;;20.63;4.47;;;6.70;99.90;;;;;;6211104;23;20194;-83
2022/01/07 07:04:52;;;;;;;14.70;3.80;;;6.70;99.90;;;;;;6212447;23;20297;-83
2022/01/07 07:07:19;;;;;;;11.83;3.23;;;6.70;99.90;;;;;;6212115;23;20170;-85
2022/01/07 07:09:46;;;;;;;13.80;2.90;;;6.70;99.90;;;;;;6211052;23;20638;-84
2022/01/07 07:12:15;;;;;;;15.47;3.83;;;6.70;99.90;;;;;;6212598;23;20201;-86
2022/01/07 07:14:42;;;;;;;12.80;3.40;;;6.70;99.90;;;;;;6212285;23;20278;-84
2022/01/07 07:17:10;;;;;;;12.23;2.90;;;6.70;99.90;;;;;;6211931;23;20490;-88
2022/01/07 07:19:37;;;;;;;17.70;3.70;;;6.80;99.90;;;;;;6211851;23;20495;-83
2022/01/07 07:22:05;;;;;;;13.63;4.07;;;6.80;99.90;;;;;;6212407;23;20193;-83
2022/01/07 07:24:31;;;;;;;15.13;3.67;;;6.80;99.90;;;;;;6213184;23;20702;-89
2022/01/07 07:26:59;;;;;;;21.00;4.30;;;6.90;99.90;;;;;;6211876;23;20198;-86
2022/01/07 07:29:27;;;;;;;17.00;5.33;;;6.90;99.90;;;;;;6209748;23;20566;-84
2022/01/07 07:31:56;;;;;;;17.27;4.70;;;6.90;99.90;;;;;;6209948;23;20174;-86
2022/01/07 07:37:13;;;;;;;14.73;3.30;;;6.90;99.90;;;;;;6186274;23;20493;-87
2022/01/07 07:39:40;;;;;;;14.13;3.90;;;6.90;99.90;;;;;;6213152;23;20667;-91
2022/01/07 07:42:07;;;;;;;14.73;5.70;;;7.00;99.90;;;;;;6215631;22;20209;-84
2022/01/07 07:44:36;;;;;;;12.53;4.57;;;7.00;99.90;;;;;;6242572;23;20200;-92
2022/01/07 07:47:03;;;;;;;11.83;2.73;;;6.90;99.90;;;;;;6244607;23;20177;-93
2022/01/07 07:49:30;;;;;;;6.90;2.67;;;6.80;99.90;;;;;;6244626;23;20517;-90
2022/01/07 07:51:57;;;;;;;10.97;2.30;;;6.60;99.90;;;;;;6241233;23;20169;-94
2022/01/07 07:54:24;;;;;;;12.90;2.30;;;6.50;99.90;;;;;;6240309;23;20172;-94
2022/01/07 07:56:51;;;;;;;13.67;2.67;;;6.40;99.90;;;;;;6244765;23;20571;-93
2022/01/07 07:59:22;;;;;;;11.63;2.97;;;6.40;99.90;;;;;;6245463;22;20209;-93
2022/01/07 08:01:50;;;;;;;21.07;4.07;;;6.30;99.90;;;;;;6247214;23;20189;-93
2022/01/07 08:04:21;;;;;;;18.77;4.20;;;6.30;99.90;;;;;;6248387;23;20176;-93
2022/01/07 08:06:48;;;;;;;20.63;4.37;;;6.20;99.90;;;;;;6248585;23;20200;-93
2022/01/07 08:09:15;;;;;;;33.70;6.93;;;6.20;99.90;;;;;;6252567;23;20174;-93
2022/01/07 08:11:53;;;;;;;14.97;5.27;;;6.20;99.90;;;;;;6259376;23;20221;-93
2022/01/07 08:17:08;;;;;;;16.73;5.53;;;6.20;99.90;;;;;;6245248;23;20168;-90
2022/01/07 08:19:35;;;;;;;15.40;3.70;;;6.20;99.90;;;;;;6243478;23;20252;-88
2022/01/07 08:22:02;;;;;;;12.57;3.63;;;6.20;99.90;;;;;;6242966;23;20268;-85
2022/01/07 08:28:28;;;;;;;13.30;3.07;;;6.40;99.90;;;;;;6151261;23;20180;-85
2022/01/07 08:31:23;;;;;;;13.40;3.43;;;6.40;99.90;;;;;;6241108;23;20200;-90
2022/01/07 08:36:35;;;;;;;20.30;4.13;;;6.50;99.90;;;;;;6242080;23;20176;-85
2022/01/07 08:39:04;;;;;;;17.10;3.90;;;6.50;99.90;;;;;;6228871;23;20618;-84
2022/01/07 08:41:32;;;;;;;16.47;4.50;;;6.60;99.90;;;;;;6211493;23;20190;-88
2022/01/07 08:44:03;;;;;;;17.40;3.50;;;6.60;99.90;;;;;;6208495;23;20415;-91
2022/01/07 08:46:31;;;;;;;16.60;3.63;;;6.70;99.90;;;;;;6211413;23;20174;-86
2022/01/07 08:48:59;;;;;;;21.30;4.40;;;6.70;99.90;;;;;;6212381;23;20178;-87
2022/01/07 08:51:27;;;;;;;14.63;2.90;;;6.70;99.90;;;;;;6210680;23;20621;-88
2022/01/07 08:53:54;;;;;;;13.37;2.97;;;6.80;99.90;;;;;;6210937;23;20181;-85
2022/01/07 08:56:23;;;;;;;14.53;3.53;;;6.80;99.90;;;;;;6211179;23;20638;-84
2022/01/07 08:58:50;;;;;;;14.83;2.70;;;6.80;99.90;;;;;;6210786;23;20202;-87
2022/01/07 09:01:17;;;;;;;12.57;2.80;;;6.80;99.90;;;;;;6209747;23;20285;-87
2022/01/07 09:03:44;;;;;;;10.80;2.87;;;6.80;99.90;;;;;;6209650;23;20162;-90
2022/01/07 09:06:12;;;;;;;12.03;2.73;;;6.70;99.90;;;;;;6207982;23;20166;-88
2022/01/07 09:08:39;;;;;;;11.10;2.53;;;6.70;99.90;;;;;;6210501;23;20573;-88
2022/01/07 09:11:06;;;;;;;16.37;3.47;;;6.80;99.90;;;;;;6211965;23;20166;-86
2022/01/07 09:13:33;;;;;;;12.80;2.77;;;6.80;99.90;;;;;;6211515;23;20181;-85
2022/01/07 09:16:02;;;;;;;17.40;3.23;;;6.80;99.90;;;;;;6213332;23;20166;-88
2022/01/07 09:18:31;;;;;;;13.20;2.80;;;6.80;99.90;;;;;;6213972;23;20174;-88
2022/01/07 09:20:59;;;;;;;10.93;2.07;;;6.70;99.90;;;;;;6212825;23;20201;-82
2022/01/07 09:23:27;;;;;;;8.97;2.50;;;6.80;99.90;;;;;;6212419;23;20462;-88
2022/01/07 09:25:54;;;;;;;11.37;2.30;;;6.70;99.90;;;;;;6213130;23;20170;-88
2022/01/07 09:28:21;;;;;;;12.57;2.23;;;6.80;99.90;;;;;;6212434;23;20236;-90
2022/01/07 09:30:48;;;;;;;11.40;2.43;;;6.90;99.90;;;;;;6212427;23;20174;-85
2022/01/07 09:33:15;;;;;;;8.50;2.23;;;6.90;99.90;;;;;;6211600;23;20473;-84
2022/01/07 09:35:41;;;;;;;18.43;2.50;;;6.80;99.90;;;;;;6211111;23;20166;-81
2022/01/07 09:38:08;;;;;;;14.20;2.40;;;6.80;99.90;;;;;;6213738;23;20178;-90
2022/01/07 09:40:36;;;;;;;10.80;3.17;;;6.80;99.90;;;;;;6211403;23;20181;-87
2022/01/07 09:43:05;;;;;;;7.77;2.27;;;6.80;99.90;;;;;;6207925;23;20194;-88
2022/01/07 09:45:33;;;;;;;15.23;2.87;;;6.80;99.90;;;;;;6211921;23;20180;-89
2022/01/07 09:48:02;;;;;;;10.17;2.40;;;6.80;99.90;;;;;;6213568;23;20162;-89
2022/01/07 09:50:30;;;;;;;17.83;3.07;;;6.90;99.90;;;;;;6212102;23;20512;-87
2022/01/07 09:52:57;;;;;;;15.43;3.47;;;7.00;99.90;;;;;;6214029;23;20170;-89
2022/01/07 09:55:25;;;;;;;6.77;2.57;;;7.10;99.90;;;;;;6214500;23;20181;-89
2022/01/07 09:57:53;;;;;;;9.37;2.60;;;7.20;99.90;;;;;;6213446;23;20177;-90
2022/01/07 10:00:19;;;;;;;14.33;2.73;;;7.20;99.90;;;;;;6213565;23;20189;-84
2022/01/07 10:03:00;;;;;;;13.53;3.97;;;7.20;99.90;;;;;;6213411;23;20194;-90
2022/01/07 10:05:27;;;;;;;12.97;2.67;;;7.20;99.90;;;;;;6210544;23;20212;-86
2022/01/07 10:07:54;;;;;;;9.50;2.67;;;7.20;99.90;;;;;;6212975;23;20504;-88
2022/01/07 10:10:21;;;;;;;12.60;2.60;;;7.20;99.90;;;;;;6212891;23;20177;-90
2022/01/07 10:12:59;;;;;;;15.07;2.97;;;7.20;99.90;;;;;;6212489;23;20489;-89
2022/01/07 10:15:28;;;;;;;11.13;2.90;;;7.10;99.90;;;;;;6212105;23;20173;-91
2022/01/07 10:18:00;;;;;;;12.30;3.23;;;7.10;99.90;;;;;;6212827;23;20178;-90
2022/01/07 10:20:29;;;;;;;14.97;4.03;;;7.10;99.90;;;;;;6212661;23;20177;-89
2022/01/07 10:22:59;;;;;;;12.37;2.87;;;7.10;99.90;;;;;;6213439;23;20196;-88
2022/01/07 10:25:27;;;;;;;13.67;3.63;;;7.10;99.90;;;;;;6212688;23;20182;-88
2022/01/07 10:28:02;;;;;;;16.20;2.53;;;7.10;99.90;;;;;;6211118;23;20174;-81
2022/01/07 10:30:35;;;;;;;16.17;2.90;;;7.10;99.90;;;;;;6212888;23;20158;-84
2022/01/07 10:33:14;;;;;;;11.23;2.60;;;7.10;99.90;;;;;;6212599;23;20162;-85
2022/01/07 10:35:41;;;;;;;13.70;2.80;;;7.10;99.90;;;;;;6212227;23;20555;-83
2022/01/07 10:38:08;;;;;;;7.73;2.70;;;7.10;99.90;;;;;;6212973;23;20173;-86
2022/01/07 10:40:37;;;;;;;12.87;3.03;;;7.10;99.90;;;;;;6212643;23;20261;-89
2022/01/07 10:43:17;;;;;;;15.63;3.70;;;7.00;99.90;;;;;;6213074;23;20296;-90
2022/01/07 10:45:46;;;;;;;10.93;4.00;;;7.10;99.90;;;;;;6212858;23;20166;-90
2022/01/07 10:48:13;;;;;;;15.83;3.70;;;7.10;99.90;;;;;;6213080;23;20173;-86
2022/01/07 10:50:42;;;;;;;14.30;3.73;;;7.10;99.90;;;;;;6212225;23;20204;-89
2022/01/07 10:53:30;;;;;;;8.67;2.50;;;7.10;99.90;;;;;;6212836;23;20174;-86
2022/01/07 10:56:11;;;;;;;12.43;2.70;;;7.20;99.90;;;;;;6205775;23;20217;-88
2022/01/07 10:59:02;;;;;;;11.93;2.57;;;7.30;99.90;;;;;;6211815;23;20702;-89
2022/01/07 11:01:38;;;;;;;10.27;2.70;;;7.40;99.90;;;;;;6211042;23;20420;-87
2022/01/07 11:04:07;;;;;;;14.30;3.27;;;7.40;99.90;;;;;;6211430;23;20174;-84
2022/01/07 11:06:34;;;;;;;11.60;3.00;;;7.50;99.90;;;;;;6214744;23;20170;-88
2022/01/07 11:09:03;;;;;;;10.47;2.97;;;7.60;99.90;;;;;;6216219;23;20166;-87
2022/01/07 11:11:31;;;;;;;10.70;3.20;;;7.60;99.90;;;;;;6217474;23;20615;-85
2022/01/07 11:14:08;;;;;;;13.37;2.90;;;7.60;99.90;;;;;;6216580;23;20169;-88
2022/01/07 11:16:38;;;;;;;14.00;3.67;;;7.70;99.90;;;;;;6208900;23;20166;-89
2022/01/07 11:19:05;;;;;;;11.40;2.57;;;7.70;99.90;;;;;;6219326;23;20173;-87
2022/01/07 11:21:32;;;;;;;10.43;2.70;;;7.60;99.90;;;;;;6216115;23;20170;-93
2022/01/07 11:23:59;;;;;;;13.47;2.87;;;7.60;99.90;;;;;;6215421;23;20200;-89
2022/01/07 11:26:26;;;;;;;11.73;3.03;;;7.60;99.90;;;;;;6215442;23;20174;-90
2022/01/07 11:29:03;;;;;;;12.50;2.50;;;7.70;99.90;;;;;;6218672;23;20170;-96
2022/01/07 11:31:30;;;;;;;15.90;2.63;;;7.60;99.90;;;;;;6216327;23;20199;-92
2022/01/07 11:34:25;;;;;;;13.60;3.57;;;7.60;99.90;;;;;;6213256;23;20166;-93
2022/01/07 11:36:53;;;;;;;13.90;2.57;;;7.50;99.90;;;;;;6212279;23;20170;-94
2022/01/07 11:39:23;;;;;;;7.77;2.47;;;7.50;99.90;;;;;;6213074;23;20190;-87
2022/01/07 11:41:53;;;;;;;11.63;2.53;;;7.60;99.90;;;;;;6213230;23;20171;-94
2022/01/07 11:44:27;;;;;;;10.67;3.00;;;7.60;99.90;;;;;;6211659;23;20231;-92
2022/01/07 11:47:24;;;;;;;10.03;2.73;;;7.60;99.90;;;;;;6215912;23;20221;-93
2022/01/07 11:50:02;;;;;;;13.33;2.70;;;7.60;99.90;;;;;;6212011;23;20201;-89
2022/01/07 11:52:31;;;;;;;12.20;2.93;;;7.50;99.90;;;;;;6213210;23;20162;-89
2022/01/07 11:55:26;;;;;;;11.70;2.80;;;7.50;99.90;;;;;;6213143;23;20162;-90
2022/01/07 11:57:54;;;;;;;9.33;2.53;;;7.40;99.90;;;;;;6212806;23;20429;-93
2022/01/07 12:00:56;;;;;;;12.13;2.83;;;7.30;99.90;;;;;;6213727;23;20169;-86
2022/01/07 12:03:49;;;;;;;13.83;2.50;;;7.30;99.90;;;;;;6213083;23;20205;-88
2022/01/07 12:06:48;;;;;;;9.83;2.30;;;7.20;99.90;;;;;;6192785;23;20174;-88
2022/01/07 12:09:25;;;;;;;10.33;2.57;;;7.30;99.90;;;;;;6213496;23;20182;-91
2022/01/07 12:11:56;;;;;;;7.10;2.13;;;7.20;99.90;;;;;;6212681;23;20200;-84
2022/01/07 12:14:25;;;;;;;5.73;2.07;;;7.30;99.90;;;;;;6212526;23;20753;-89
2022/01/07 12:16:56;;;;;;;9.93;2.33;;;7.30;99.90;;;;;;6212861;23;20177;-87
2022/01/07 12:20:02;;;;;;;8.67;2.40;;;7.30;99.90;;;;;;6215583;23;20178;-92
2022/01/07 12:22:29;;;;;;;6.60;1.90;;;7.30;99.90;;;;;;6223247;23;20186;-89
2022/01/07 12:25:02;;;;;;;10.80;2.10;;;7.30;99.90;;;;;;6217746;23;20189;-89
2022/01/07 12:27:29;;;;;;;9.70;2.47;;;7.30;99.90;;;;;;6212595;23;20174;-87
2022/01/07 12:29:58;;;;;;;12.27;2.50;;;7.30;99.90;;;;;;6210739;23;20177;-86
2022/01/07 12:32:36;;;;;;;10.70;2.10;;;7.30;99.90;;;;;;6212472;23;20174;-91
2022/01/07 12:35:06;;;;;;;7.97;1.80;;;7.40;99.90;;;;;;6218054;23;20185;-89
2022/01/07 12:37:33;;;;;;;8.83;2.07;;;7.40;99.90;;;;;;6216166;23;20237;-89
2022/01/07 12:40:02;;;;;;;12.63;2.50;;;7.40;99.90;;;;;;6209486;23;20276;-83
2022/01/07 12:42:30;;;;;;;9.73;2.53;;;7.40;99.90;;;;;;6209642;23;20194;-89
2022/01/07 12:44:59;;;;;;;13.93;2.70;;;7.30;99.90;;;;;;6210693;23;20169;-86
2022/01/07 12:47:28;;;;;;;15.43;3.17;;;7.30;99.90;;;;;;6209329;23;20182;-84
2022/01/07 12:49:58;;;;;;;11.93;3.33;;;7.40;99.90;;;;;;6210613;23;20170;-91
2022/01/07 12:52:27;;;;;;;7.93;2.43;;;7.40;99.90;;;;;;6215046;23;20166;-94
2022/01/07 12:54:56;;;;;;;11.17;2.97;;;7.50;99.90;;;;;;6214706;23;20165;-91
2022/01/07 12:57:28;;;;;;;13.90;2.70;;;7.60;99.90;;;;;;6213863;23;20169;-87
2022/01/07 13:00:17;;;;;;;8.53;2.60;;;7.60;99.90;;;;;;6213859;23;20197;-82
2022/01/07 13:02:46;;;;;;;9.77;2.83;;;7.70;99.90;;;;;;6212923;23;20194;-89
2022/01/07 13:05:23;;;;;;;10.33;3.03;;;7.70;99.90;;;;;;6213500;23;20193;-87
2022/01/07 13:07:54;;;;;;;7.07;2.30;;;7.60;99.90;;;;;;6213331;23;20161;-82
2022/01/07 13:10:26;;;;;;;11.60;2.77;;;7.70;99.90;;;;;;6212978;23;20559;-82